Hauptseite
METAR-TAF:

METAR-TAF

Flughäfen :

Bohrplattform

Sleipner, Norwegen

Breite: 58-22-00N, Länge: 001-54-25E, Höhe: 50 m

Beobachtung

Neuester Wetterbericht von vor 15 Minuten, um 23:50 UTC
Wind 37 kt aus Süd/Südwest
Temperatur 11°C
Luftfeuchtigkeit 82%
Luftdruck 1001 hPa
Sichtweite 10 km oder mehr

METAR: ENSL 232350Z AUTO 20037KT 9999NDV FEW018/// BKN031/// BKN200/// 11/08 Q1001 W///S5

Zeit: 02:05 (00:05 UTC)


TAF: fehlend

Wetterbeobachtungen und Prognosen von mehr als 4000 Flughäfen (METAR und TAF Bericht).

Die verfügbaren Stationen werden durch gelbe und rote Markierungen auf der Karte dargestellt.

Führen Sie die Maus auf sie, um den Namen der Station zu sehen.

Darauf klicken, um die Beobachtung von Wetterbeobachtungen und Prognosen zu sehen.

Um die Karte zu ändern : klicken Sie auf den grünen Tasten mit einem schwarzen Kreuz Zum Vergrößern, auf den grünen Button mit einem Gedankenstrich zu verkleinern, oder auf die grünen Pfeile für benachbarte Karten.


METAR-TAF: